sensor_id;sensor_type;location;lat;lon;timestamp;P1;durP1;ratioP1;P2;durP2;ratioP2
59294;SDS011;45067;44.654;20.200;2023-02-21T00:00:25;33.38;;;19.35;;
59294;SDS011;45067;44.654;20.200;2023-02-21T00:03:09;43.80;;;21.65;;
59294;SDS011;45067;44.654;20.200;2023-02-21T00:05:54;41.70;;;21.00;;
59294;SDS011;45067;44.654;20.200;2023-02-21T00:08:38;37.55;;;20.02;;
59294;SDS011;45067;44.654;20.200;2023-02-21T00:11:23;38.45;;;21.13;;
59294;SDS011;45067;44.654;20.200;2023-02-21T00:14:08;37.50;;;20.38;;
59294;SDS011;45067;44.654;20.200;2023-02-21T00:16:52;38.80;;;18.75;;
59294;SDS011;45067;44.654;20.200;2023-02-21T00:19:37;37.90;;;19.98;;
59294;SDS011;45067;44.654;20.200;2023-02-21T00:22:21;34.22;;;18.48;;
59294;SDS011;45067;44.654;20.200;2023-02-21T00:28:19;34.58;;;19.10;;
59294;SDS011;45067;44.654;20.200;2023-02-21T00:31:03;41.50;;;20.00;;
59294;SDS011;45067;44.654;20.200;2023-02-21T00:33:48;35.03;;;18.90;;
59294;SDS011;45067;44.654;20.200;2023-02-21T00:36:33;35.15;;;17.52;;
59294;SDS011;45067;44.654;20.200;2023-02-21T00:39:17;34.05;;;18.92;;
59294;SDS011;45067;44.654;20.200;2023-02-21T00:45:06;33.40;;;18.15;;
59294;SDS011;45067;44.654;20.200;2023-02-21T00:47:51;33.63;;;18.73;;
59294;SDS011;45067;44.654;20.200;2023-02-21T00:50:35;36.35;;;18.27;;
59294;SDS011;45067;44.654;20.200;2023-02-21T00:53:22;30.30;;;17.35;;
59294;SDS011;45067;44.654;20.200;2023-02-21T00:56:07;30.83;;;17.20;;
59294;SDS011;45067;44.654;20.200;2023-02-21T00:58:52;30.33;;;16.95;;
59294;SDS011;45067;44.654;20.200;2023-02-21T01:01:36;33.47;;;17.88;;
59294;SDS011;45067;44.654;20.200;2023-02-21T01:04:21;32.72;;;17.70;;
59294;SDS011;45067;44.654;20.200;2023-02-21T01:07:05;33.35;;;18.00;;
59294;SDS011;45067;44.654;20.200;2023-02-21T01:09:50;31.10;;;17.77;;
59294;SDS011;45067;44.654;20.200;2023-02-21T01:12:34;35.63;;;18.65;;
59294;SDS011;45067;44.654;20.200;2023-02-21T01:15:19;32.47;;;16.52;;
59294;SDS011;45067;44.654;20.200;2023-02-21T01:18:03;33.58;;;18.25;;
59294;SDS011;45067;44.654;20.200;2023-02-21T01:20:48;32.17;;;16.73;;
59294;SDS011;45067;44.654;20.200;2023-02-21T01:23:33;31.33;;;16.45;;
59294;SDS011;45067;44.654;20.200;2023-02-21T01:29:21;31.45;;;17.50;;
59294;SDS011;45067;44.654;20.200;2023-02-21T01:32:05;33.47;;;18.67;;
59294;SDS011;45067;44.654;20.200;2023-02-21T01:34:50;35.08;;;18.38;;
59294;SDS011;45067;44.654;20.200;2023-02-21T01:37:34;32.60;;;18.35;;
59294;SDS011;45067;44.654;20.200;2023-02-21T01:40:19;31.50;;;16.77;;
59294;SDS011;45067;44.654;20.200;2023-02-21T01:43:12;31.67;;;16.50;;
59294;SDS011;45067;44.654;20.200;2023-02-21T01:45:57;31.42;;;17.52;;
59294;SDS011;45067;44.654;20.200;2023-02-21T01:48:41;29.23;;;16.52;;
59294;SDS011;45067;44.654;20.200;2023-02-21T01:51:27;28.48;;;16.13;;
59294;SDS011;45067;44.654;20.200;2023-02-21T01:54:15;29.95;;;16.10;;
59294;SDS011;45067;44.654;20.200;2023-02-21T01:57:01;31.02;;;17.10;;
59294;SDS011;45067;44.654;20.200;2023-02-21T01:59:46;29.95;;;16.67;;
59294;SDS011;45067;44.654;20.200;2023-02-21T02:02:33;30.70;;;17.15;;
59294;SDS011;45067;44.654;20.200;2023-02-21T02:05:19;27.48;;;15.05;;
59294;SDS011;45067;44.654;20.200;2023-02-21T02:08:04;30.85;;;16.88;;
59294;SDS011;45067;44.654;20.200;2023-02-21T02:14:00;29.75;;;15.52;;
59294;SDS011;45067;44.654;20.200;2023-02-21T02:16:37;27.08;;;15.05;;
59294;SDS011;45067;44.654;20.200;2023-02-21T02:34:57;31.50;;;16.25;;
59294;SDS011;45067;44.654;20.200;2023-02-21T02:45:37;27.38;;;15.15;;
59294;SDS011;45067;44.654;20.200;2023-02-21T02:48:20;27.88;;;13.75;;
59294;SDS011;45067;44.654;20.200;2023-02-21T02:50:47;27.92;;;15.20;;
59294;SDS011;45067;44.654;20.200;2023-02-21T02:53:16;28.42;;;14.38;;
59294;SDS011;45067;44.654;20.200;2023-02-21T02:55:45;28.02;;;15.63;;
59294;SDS011;45067;44.654;20.200;2023-02-21T03:00:39;26.10;;;13.85;;
59294;SDS011;45067;44.654;20.200;2023-02-21T03:03:30;28.02;;;14.38;;
59294;SDS011;45067;44.654;20.200;2023-02-21T03:11:09;27.13;;;15.05;;
59294;SDS011;45067;44.654;20.200;2023-02-21T03:13:39;28.92;;;14.93;;
59294;SDS011;45067;44.654;20.200;2023-02-21T03:19:14;28.20;;;15.52;;
59294;SDS011;45067;44.654;20.200;2023-02-21T03:21:39;30.95;;;15.40;;
59294;SDS011;45067;44.654;20.200;2023-02-21T03:24:07;29.33;;;15.65;;
59294;SDS011;45067;44.654;20.200;2023-02-21T03:26:35;28.77;;;15.88;;
59294;SDS011;45067;44.654;20.200;2023-02-21T03:29:03;31.45;;;16.58;;
59294;SDS011;45067;44.654;20.200;2023-02-21T03:31:31;33.97;;;16.13;;
59294;SDS011;45067;44.654;20.200;2023-02-21T03:34:00;29.98;;;16.80;;
59294;SDS011;45067;44.654;20.200;2023-02-21T03:36:26;34.85;;;18.15;;
59294;SDS011;45067;44.654;20.200;2023-02-21T03:38:52;32.67;;;17.27;;
59294;SDS011;45067;44.654;20.200;2023-02-21T03:41:18;26.70;;;16.40;;
59294;SDS011;45067;44.654;20.200;2023-02-21T03:43:44;27.20;;;15.65;;
59294;SDS011;45067;44.654;20.200;2023-02-21T03:46:10;27.83;;;15.90;;
59294;SDS011;45067;44.654;20.200;2023-02-21T03:48:36;28.50;;;15.30;;
59294;SDS011;45067;44.654;20.200;2023-02-21T03:51:02;29.50;;;15.68;;
59294;SDS011;45067;44.654;20.200;2023-02-21T03:53:28;32.30;;;15.43;;
59294;SDS011;45067;44.654;20.200;2023-02-21T03:55:54;29.48;;;15.30;;
59294;SDS011;45067;44.654;20.200;2023-02-21T03:58:20;30.17;;;15.20;;
59294;SDS011;45067;44.654;20.200;2023-02-21T04:00:47;28.08;;;14.48;;
59294;SDS011;45067;44.654;20.200;2023-02-21T04:03:13;25.25;;;14.13;;
59294;SDS011;45067;44.654;20.200;2023-02-21T04:05:39;25.75;;;14.82;;
59294;SDS011;45067;44.654;20.200;2023-02-21T04:08:05;30.08;;;14.55;;
59294;SDS011;45067;44.654;20.200;2023-02-21T04:10:31;26.42;;;14.70;;
59294;SDS011;45067;44.654;20.200;2023-02-21T04:16:02;28.42;;;14.55;;
59294;SDS011;45067;44.654;20.200;2023-02-21T04:18:28;25.73;;;14.35;;
59294;SDS011;45067;44.654;20.200;2023-02-21T04:20:54;29.13;;;13.98;;
59294;SDS011;45067;44.654;20.200;2023-02-21T04:23:21;25.75;;;14.73;;
59294;SDS011;45067;44.654;20.200;2023-02-21T04:25:47;25.23;;;13.40;;
59294;SDS011;45067;44.654;20.200;2023-02-21T04:31:17;28.30;;;14.50;;
59294;SDS011;45067;44.654;20.200;2023-02-21T04:33:43;29.27;;;14.43;;
59294;SDS011;45067;44.654;20.200;2023-02-21T04:36:10;25.33;;;13.20;;
59294;SDS011;45067;44.654;20.200;2023-02-21T04:38:36;23.85;;;13.20;;
59294;SDS011;45067;44.654;20.200;2023-02-21T04:41:02;28.52;;;13.73;;
59294;SDS011;45067;44.654;20.200;2023-02-21T04:46:32;24.27;;;14.27;;
59294;SDS011;45067;44.654;20.200;2023-02-21T04:48:59;25.38;;;14.23;;
59294;SDS011;45067;44.654;20.200;2023-02-21T04:51:25;28.23;;;14.30;;
59294;SDS011;45067;44.654;20.200;2023-02-21T04:53:51;24.70;;;13.88;;
59294;SDS011;45067;44.654;20.200;2023-02-21T04:56:19;27.00;;;15.07;;
59294;SDS011;45067;44.654;20.200;2023-02-21T04:58:45;25.80;;;15.15;;
59294;SDS011;45067;44.654;20.200;2023-02-21T05:01:12;24.70;;;15.23;;
59294;SDS011;45067;44.654;20.200;2023-02-21T05:03:38;27.27;;;15.52;;
59294;SDS011;45067;44.654;20.200;2023-02-21T05:06:05;28.20;;;15.00;;
59294;SDS011;45067;44.654;20.200;2023-02-21T05:08:32;30.17;;;13.55;;
59294;SDS011;45067;44.654;20.200;2023-02-21T05:10:58;26.70;;;14.30;;
59294;SDS011;45067;44.654;20.200;2023-02-21T05:16:27;25.27;;;13.70;;
59294;SDS011;45067;44.654;20.200;2023-02-21T05:18:53;24.73;;;13.88;;
59294;SDS011;45067;44.654;20.200;2023-02-21T05:21:19;23.88;;;13.60;;
59294;SDS011;45067;44.654;20.200;2023-02-21T05:23:46;24.48;;;13.40;;
59294;SDS011;45067;44.654;20.200;2023-02-21T05:26:20;24.33;;;13.75;;
59294;SDS011;45067;44.654;20.200;2023-02-21T05:31:50;22.75;;;13.48;;
59294;SDS011;45067;44.654;20.200;2023-02-21T05:34:17;27.05;;;13.70;;
59294;SDS011;45067;44.654;20.200;2023-02-21T05:36:43;26.13;;;13.65;;
59294;SDS011;45067;44.654;20.200;2023-02-21T05:39:10;23.80;;;13.00;;
59294;SDS011;45067;44.654;20.200;2023-02-21T05:41:36;25.92;;;12.60;;
59294;SDS011;45067;44.654;20.200;2023-02-21T05:44:02;23.95;;;12.45;;
59294;SDS011;45067;44.654;20.200;2023-02-21T05:46:31;24.35;;;11.65;;
59294;SDS011;45067;44.654;20.200;2023-02-21T05:48:57;20.63;;;10.95;;
59294;SDS011;45067;44.654;20.200;2023-02-21T05:51:24;19.75;;;10.43;;
59294;SDS011;45067;44.654;20.200;2023-02-21T05:53:51;21.70;;;11.52;;
59294;SDS011;45067;44.654;20.200;2023-02-21T05:56:17;18.92;;;10.38;;
59294;SDS011;45067;44.654;20.200;2023-02-21T06:01:48;23.52;;;11.57;;
59294;SDS011;45067;44.654;20.200;2023-02-21T06:04:15;18.35;;;10.40;;
59294;SDS011;45067;44.654;20.200;2023-02-21T06:06:41;19.98;;;10.07;;
59294;SDS011;45067;44.654;20.200;2023-02-21T06:09:08;19.23;;;10.60;;
59294;SDS011;45067;44.654;20.200;2023-02-21T06:11:35;22.13;;;11.05;;
59294;SDS011;45067;44.654;20.200;2023-02-21T06:17:23;26.40;;;13.68;;
59294;SDS011;45067;44.654;20.200;2023-02-21T06:19:49;30.65;;;13.82;;
59294;SDS011;45067;44.654;20.200;2023-02-21T06:22:16;26.83;;;14.65;;
59294;SDS011;45067;44.654;20.200;2023-02-21T06:24:42;26.58;;;14.73;;
59294;SDS011;45067;44.654;20.200;2023-02-21T06:27:08;27.83;;;15.25;;
59294;SDS011;45067;44.654;20.200;2023-02-21T06:29:34;30.70;;;15.13;;
59294;SDS011;45067;44.654;20.200;2023-02-21T06:32:00;30.17;;;14.10;;
59294;SDS011;45067;44.654;20.200;2023-02-21T06:34:26;32.17;;;15.13;;
59294;SDS011;45067;44.654;20.200;2023-02-21T06:36:53;28.50;;;16.20;;
59294;SDS011;45067;44.654;20.200;2023-02-21T06:39:20;26.70;;;16.70;;
59294;SDS011;45067;44.654;20.200;2023-02-21T06:41:48;39.17;;;20.38;;
59294;SDS011;45067;44.654;20.200;2023-02-21T06:44:14;36.35;;;20.35;;
59294;SDS011;45067;44.654;20.200;2023-02-21T06:46:40;38.40;;;20.10;;
59294;SDS011;45067;44.654;20.200;2023-02-21T06:49:07;46.45;;;22.67;;
59294;SDS011;45067;44.654;20.200;2023-02-21T06:51:36;38.80;;;21.77;;
59294;SDS011;45067;44.654;20.200;2023-02-21T06:54:03;36.25;;;18.90;;
59294;SDS011;45067;44.654;20.200;2023-02-21T06:56:29;38.22;;;19.98;;
59294;SDS011;45067;44.654;20.200;2023-02-21T07:01:59;32.33;;;18.67;;
59294;SDS011;45067;44.654;20.200;2023-02-21T07:04:26;35.13;;;18.02;;
59294;SDS011;45067;44.654;20.200;2023-02-21T07:06:52;29.48;;;17.25;;
59294;SDS011;45067;44.654;20.200;2023-02-21T07:09:18;35.22;;;17.70;;
59294;SDS011;45067;44.654;20.200;2023-02-21T07:11:45;39.05;;;18.65;;
59294;SDS011;45067;44.654;20.200;2023-02-21T07:17:14;34.83;;;18.83;;
59294;SDS011;45067;44.654;20.200;2023-02-21T07:19:40;39.33;;;19.25;;
59294;SDS011;45067;44.654;20.200;2023-02-21T07:22:07;33.22;;;19.48;;
59294;SDS011;45067;44.654;20.200;2023-02-21T07:24:33;33.42;;;18.73;;
59294;SDS011;45067;44.654;20.200;2023-02-21T07:26:59;39.22;;;20.92;;
59294;SDS011;45067;44.654;20.200;2023-02-21T07:29:25;33.60;;;19.65;;
59294;SDS011;45067;44.654;20.200;2023-02-21T07:31:51;33.22;;;19.60;;
59294;SDS011;45067;44.654;20.200;2023-02-21T07:34:17;40.20;;;21.67;;
59294;SDS011;45067;44.654;20.200;2023-02-21T07:36:44;46.67;;;26.05;;
59294;SDS011;45067;44.654;20.200;2023-02-21T07:39:10;47.05;;;25.63;;
59294;SDS011;45067;44.654;20.200;2023-02-21T07:41:36;33.72;;;20.83;;
59294;SDS011;45067;44.654;20.200;2023-02-21T07:47:06;32.78;;;19.80;;
59294;SDS011;45067;44.654;20.200;2023-02-21T07:49:36;30.77;;;17.55;;
59294;SDS011;45067;44.654;20.200;2023-02-21T07:52:02;34.15;;;21.02;;
59294;SDS011;45067;44.654;20.200;2023-02-21T07:54:29;33.80;;;19.05;;
59294;SDS011;45067;44.654;20.200;2023-02-21T07:56:54;29.55;;;17.27;;
59294;SDS011;45067;44.654;20.200;2023-02-21T08:02:24;26.80;;;16.88;;
59294;SDS011;45067;44.654;20.200;2023-02-21T08:04:50;32.60;;;18.00;;
59294;SDS011;45067;44.654;20.200;2023-02-21T08:07:16;27.50;;;17.27;;
59294;SDS011;45067;44.654;20.200;2023-02-21T08:09:42;22.52;;;15.38;;
59294;SDS011;45067;44.654;20.200;2023-02-21T08:12:09;28.85;;;16.58;;
59294;SDS011;45067;44.654;20.200;2023-02-21T08:17:38;19.40;;;12.73;;
59294;SDS011;45067;44.654;20.200;2023-02-21T08:20:04;23.60;;;14.77;;
59294;SDS011;45067;44.654;20.200;2023-02-21T08:22:31;22.85;;;13.18;;
59294;SDS011;45067;44.654;20.200;2023-02-21T08:24:57;20.60;;;13.13;;
59294;SDS011;45067;44.654;20.200;2023-02-21T08:27:24;23.25;;;15.52;;
59294;SDS011;45067;44.654;20.200;2023-02-21T08:29:50;31.17;;;17.63;;
59294;SDS011;45067;44.654;20.200;2023-02-21T08:32:16;32.25;;;18.08;;
59294;SDS011;45067;44.654;20.200;2023-02-21T08:34:46;25.23;;;16.85;;
59294;SDS011;45067;44.654;20.200;2023-02-21T08:37:12;22.53;;;14.00;;
59294;SDS011;45067;44.654;20.200;2023-02-21T08:39:47;33.45;;;15.32;;
59294;SDS011;45067;44.654;20.200;2023-02-21T08:42:13;21.17;;;13.13;;
59294;SDS011;45067;44.654;20.200;2023-02-21T08:47:43;20.80;;;12.57;;
59294;SDS011;45067;44.654;20.200;2023-02-21T08:50:09;21.90;;;11.90;;
59294;SDS011;45067;44.654;20.200;2023-02-21T08:52:35;24.08;;;12.35;;
59294;SDS011;45067;44.654;20.200;2023-02-21T08:55:03;20.70;;;11.90;;
59294;SDS011;45067;44.654;20.200;2023-02-21T08:57:29;24.90;;;12.73;;
59294;SDS011;45067;44.654;20.200;2023-02-21T08:59:55;19.77;;;11.30;;
59294;SDS011;45067;44.654;20.200;2023-02-21T09:02:23;20.42;;;11.25;;
59294;SDS011;45067;44.654;20.200;2023-02-21T09:04:49;17.30;;;10.57;;
59294;SDS011;45067;44.654;20.200;2023-02-21T09:07:17;21.02;;;11.23;;
59294;SDS011;45067;44.654;20.200;2023-02-21T09:09:43;16.92;;;10.82;;
59294;SDS011;45067;44.654;20.200;2023-02-21T09:12:09;18.60;;;9.98;;
59294;SDS011;45067;44.654;20.200;2023-02-21T09:17:39;16.95;;;10.65;;
59294;SDS011;45067;44.654;20.200;2023-02-21T09:20:07;15.43;;;9.85;;
59294;SDS011;45067;44.654;20.200;2023-02-21T09:22:34;14.75;;;10.00;;
59294;SDS011;45067;44.654;20.200;2023-02-21T09:25:00;16.42;;;9.82;;
59294;SDS011;45067;44.654;20.200;2023-02-21T09:27:26;15.02;;;9.52;;
59294;SDS011;45067;44.654;20.200;2023-02-21T09:33:15;14.57;;;7.38;;
59294;SDS011;45067;44.654;20.200;2023-02-21T09:35:41;13.48;;;6.72;;
59294;SDS011;45067;44.654;20.200;2023-02-21T09:38:07;11.63;;;7.00;;
59294;SDS011;45067;44.654;20.200;2023-02-21T09:42:59;10.93;;;6.93;;
59294;SDS011;45067;44.654;20.200;2023-02-21T09:45:27;10.70;;;7.35;;
59294;SDS011;45067;44.654;20.200;2023-02-21T09:47:55;14.70;;;9.30;;
59294;SDS011;45067;44.654;20.200;2023-02-21T09:50:24;16.35;;;7.28;;
59294;SDS011;45067;44.654;20.200;2023-02-21T09:52:55;11.63;;;7.25;;
59294;SDS011;45067;44.654;20.200;2023-02-21T09:57:54;14.75;;;8.50;;
59294;SDS011;45067;44.654;20.200;2023-02-21T10:00:21;13.13;;;8.30;;
59294;SDS011;45067;44.654;20.200;2023-02-21T10:05:57;11.23;;;6.38;;
59294;SDS011;45067;44.654;20.200;2023-02-21T10:11:20;14.85;;;6.95;;
59294;SDS011;45067;44.654;20.200;2023-02-21T10:13:54;14.02;;;6.93;;
59294;SDS011;45067;44.654;20.200;2023-02-21T10:16:28;9.90;;;6.72;;
59294;SDS011;45067;44.654;20.200;2023-02-21T10:19:12;13.05;;;6.82;;
59294;SDS011;45067;44.654;20.200;2023-02-21T10:21:43;12.20;;;6.13;;
59294;SDS011;45067;44.654;20.200;2023-02-21T10:24:14;11.25;;;6.22;;
59294;SDS011;45067;44.654;20.200;2023-02-21T10:26:41;11.20;;;6.18;;
59294;SDS011;45067;44.654;20.200;2023-02-21T10:32:01;20.15;;;6.57;;
59294;SDS011;45067;44.654;20.200;2023-02-21T10:34:29;10.43;;;5.95;;
59294;SDS011;45067;44.654;20.200;2023-02-21T10:36:55;11.55;;;6.60;;
59294;SDS011;45067;44.654;20.200;2023-02-21T10:39:34;12.45;;;7.10;;
59294;SDS011;45067;44.654;20.200;2023-02-21T10:42:01;10.93;;;6.43;;
59294;SDS011;45067;44.654;20.200;2023-02-21T10:44:28;11.80;;;6.72;;
59294;SDS011;45067;44.654;20.200;2023-02-21T10:49:37;12.57;;;7.13;;
59294;SDS011;45067;44.654;20.200;2023-02-21T10:52:10;11.98;;;7.30;;
59294;SDS011;45067;44.654;20.200;2023-02-21T10:54:37;13.38;;;7.75;;
59294;SDS011;45067;44.654;20.200;2023-02-21T10:57:04;12.32;;;8.10;;
59294;SDS011;45067;44.654;20.200;2023-02-21T10:59:32;13.38;;;7.90;;
59294;SDS011;45067;44.654;20.200;2023-02-21T11:02:00;13.77;;;7.32;;
59294;SDS011;45067;44.654;20.200;2023-02-21T11:04:30;13.95;;;7.13;;
59294;SDS011;45067;44.654;20.200;2023-02-21T11:07:08;12.00;;;7.05;;
59294;SDS011;45067;44.654;20.200;2023-02-21T11:09:37;10.63;;;6.47;;
59294;SDS011;45067;44.654;20.200;2023-02-21T11:15:14;13.27;;;6.75;;
59294;SDS011;45067;44.654;20.200;2023-02-21T11:17:31;10.63;;;6.13;;
59294;SDS011;45067;44.654;20.200;2023-02-21T11:20:02;9.75;;;5.28;;
59294;SDS011;45067;44.654;20.200;2023-02-21T11:22:39;14.07;;;5.93;;
59294;SDS011;45067;44.654;20.200;2023-02-21T11:25:19;11.05;;;5.55;;
59294;SDS011;45067;44.654;20.200;2023-02-21T11:27:57;8.23;;;5.37;;
59294;SDS011;45067;44.654;20.200;2023-02-21T11:30:23;10.13;;;5.50;;
59294;SDS011;45067;44.654;20.200;2023-02-21T11:32:50;10.15;;;6.15;;
59294;SDS011;45067;44.654;20.200;2023-02-21T11:37:47;9.95;;;5.18;;
59294;SDS011;45067;44.654;20.200;2023-02-21T11:48:30;10.35;;;4.90;;
59294;SDS011;45067;44.654;20.200;2023-02-21T11:50:58;13.63;;;4.60;;
59294;SDS011;45067;44.654;20.200;2023-02-21T11:53:36;10.10;;;4.72;;
59294;SDS011;45067;44.654;20.200;2023-02-21T11:56:12;8.27;;;4.40;;
59294;SDS011;45067;44.654;20.200;2023-02-21T12:07:16;7.90;;;4.50;;
59294;SDS011;45067;44.654;20.200;2023-02-21T12:29:05;8.55;;;4.15;;
59294;SDS011;45067;44.654;20.200;2023-02-21T12:44:36;9.35;;;5.20;;
59294;SDS011;45067;44.654;20.200;2023-02-21T12:47:10;8.77;;;5.47;;
59294;SDS011;45067;44.654;20.200;2023-02-21T12:52:18;8.95;;;5.65;;
59294;SDS011;45067;44.654;20.200;2023-02-21T12:54:51;7.38;;;5.15;;
59294;SDS011;45067;44.654;20.200;2023-02-21T12:57:22;5.70;;;4.65;;
59294;SDS011;45067;44.654;20.200;2023-02-21T13:02:29;5.65;;;4.20;;
59294;SDS011;45067;44.654;20.200;2023-02-21T13:05:02;6.38;;;4.72;;
59294;SDS011;45067;44.654;20.200;2023-02-21T13:07:36;5.10;;;4.57;;
59294;SDS011;45067;44.654;20.200;2023-02-21T13:10:14;7.13;;;4.55;;
59294;SDS011;45067;44.654;20.200;2023-02-21T13:15:14;5.35;;;4.13;;
59294;SDS011;45067;44.654;20.200;2023-02-21T13:17:41;8.15;;;5.30;;
59294;SDS011;45067;44.654;20.200;2023-02-21T13:20:09;6.80;;;4.90;;
59294;SDS011;45067;44.654;20.200;2023-02-21T13:28:28;5.82;;;5.10;;
59294;SDS011;45067;44.654;20.200;2023-02-21T13:30:58;7.35;;;5.35;;
59294;SDS011;45067;44.654;20.200;2023-02-21T13:33:37;6.05;;;5.10;;
59294;SDS011;45067;44.654;20.200;2023-02-21T13:36:53;4.47;;;3.97;;
59294;SDS011;45067;44.654;20.200;2023-02-21T13:41:27;7.93;;;5.93;;
59294;SDS011;45067;44.654;20.200;2023-02-21T13:49:38;7.20;;;4.10;;
59294;SDS011;45067;44.654;20.200;2023-02-21T13:57:32;5.90;;;4.30;;
59294;SDS011;45067;44.654;20.200;2023-02-21T14:03:03;8.48;;;5.20;;
59294;SDS011;45067;44.654;20.200;2023-02-21T14:08:15;6.70;;;4.88;;
59294;SDS011;45067;44.654;20.200;2023-02-21T14:13:55;8.18;;;4.05;;
59294;SDS011;45067;44.654;20.200;2023-02-21T14:19:05;10.75;;;5.30;;
59294;SDS011;45067;44.654;20.200;2023-02-21T14:24:02;6.13;;;4.07;;
59294;SDS011;45067;44.654;20.200;2023-02-21T14:29:00;8.25;;;5.07;;
59294;SDS011;45067;44.654;20.200;2023-02-21T14:34:20;7.72;;;4.40;;
59294;SDS011;45067;44.654;20.200;2023-02-21T14:36:47;5.47;;;4.03;;
59294;SDS011;45067;44.654;20.200;2023-02-21T14:39:14;8.40;;;4.13;;
59294;SDS011;45067;44.654;20.200;2023-02-21T14:46:48;8.73;;;4.50;;
59294;SDS011;45067;44.654;20.200;2023-02-21T14:51:53;8.75;;;4.97;;
59294;SDS011;45067;44.654;20.200;2023-02-21T14:59:34;20.52;;;5.90;;
59294;SDS011;45067;44.654;20.200;2023-02-21T15:04:41;10.27;;;5.00;;
59294;SDS011;45067;44.654;20.200;2023-02-21T15:07:23;10.10;;;5.20;;
59294;SDS011;45067;44.654;20.200;2023-02-21T15:10:24;5.90;;;4.22;;
59294;SDS011;45067;44.654;20.200;2023-02-21T15:12:59;6.20;;;4.50;;
59294;SDS011;45067;44.654;20.200;2023-02-21T15:15:38;9.90;;;5.00;;
59294;SDS011;45067;44.654;20.200;2023-02-21T15:20:33;9.70;;;4.70;;
59294;SDS011;45067;44.654;20.200;2023-02-21T15:23:00;12.32;;;4.90;;
59294;SDS011;45067;44.654;20.200;2023-02-21T15:25:27;10.68;;;4.78;;
59294;SDS011;45067;44.654;20.200;2023-02-21T15:27:54;6.43;;;4.25;;
59294;SDS011;45067;44.654;20.200;2023-02-21T15:30:22;10.88;;;5.32;;
59294;SDS011;45067;44.654;20.200;2023-02-21T15:33:05;9.82;;;5.70;;
59294;SDS011;45067;44.654;20.200;2023-02-21T15:35:35;9.25;;;5.43;;
59294;SDS011;45067;44.654;20.200;2023-02-21T15:38:03;9.88;;;4.47;;
59294;SDS011;45067;44.654;20.200;2023-02-21T15:40:30;7.70;;;5.65;;
59294;SDS011;45067;44.654;20.200;2023-02-21T15:42:56;9.57;;;5.18;;
59294;SDS011;45067;44.654;20.200;2023-02-21T15:47:48;17.05;;;9.13;;
59294;SDS011;45067;44.654;20.200;2023-02-21T16:05:39;18.60;;;10.23;;
59294;SDS011;45067;44.654;20.200;2023-02-21T16:08:05;18.90;;;10.98;;
59294;SDS011;45067;44.654;20.200;2023-02-21T16:10:31;22.77;;;10.73;;
59294;SDS011;45067;44.654;20.200;2023-02-21T16:12:59;30.20;;;18.10;;
59294;SDS011;45067;44.654;20.200;2023-02-21T16:15:26;23.55;;;17.00;;
59294;SDS011;45067;44.654;20.200;2023-02-21T16:17:57;16.70;;;10.05;;
59294;SDS011;45067;44.654;20.200;2023-02-21T16:20:32;14.73;;;8.45;;
59294;SDS011;45067;44.654;20.200;2023-02-21T16:25:56;10.82;;;7.03;;
59294;SDS011;45067;44.654;20.200;2023-02-21T16:28:23;14.30;;;7.90;;
59294;SDS011;45067;44.654;20.200;2023-02-21T16:30:49;18.52;;;10.25;;
59294;SDS011;45067;44.654;20.200;2023-02-21T16:33:15;14.20;;;7.90;;
59294;SDS011;45067;44.654;20.200;2023-02-21T16:35:41;12.27;;;7.57;;
59294;SDS011;45067;44.654;20.200;2023-02-21T16:38:15;11.15;;;6.10;;
59294;SDS011;45067;44.654;20.200;2023-02-21T16:40:41;14.27;;;8.25;;
59294;SDS011;45067;44.654;20.200;2023-02-21T16:43:07;26.08;;;15.15;;
59294;SDS011;45067;44.654;20.200;2023-02-21T16:45:40;29.80;;;16.27;;
59294;SDS011;45067;44.654;20.200;2023-02-21T16:48:09;27.42;;;14.73;;
59294;SDS011;45067;44.654;20.200;2023-02-21T16:50:38;31.40;;;15.77;;
59294;SDS011;45067;44.654;20.200;2023-02-21T16:53:05;26.63;;;13.40;;
59294;SDS011;45067;44.654;20.200;2023-02-21T16:55:31;23.17;;;10.02;;
59294;SDS011;45067;44.654;20.200;2023-02-21T16:58:01;29.33;;;15.27;;
59294;SDS011;45067;44.654;20.200;2023-02-21T17:00:27;20.20;;;10.55;;
59294;SDS011;45067;44.654;20.200;2023-02-21T17:02:55;33.28;;;15.43;;
59294;SDS011;45067;44.654;20.200;2023-02-21T17:05:21;23.83;;;14.35;;
59294;SDS011;45067;44.654;20.200;2023-02-21T17:07:48;24.90;;;15.18;;
59294;SDS011;45067;44.654;20.200;2023-02-21T17:10:15;28.60;;;15.77;;
59294;SDS011;45067;44.654;20.200;2023-02-21T17:12:41;23.48;;;14.57;;
59294;SDS011;45067;44.654;20.200;2023-02-21T17:15:08;25.40;;;17.30;;
59294;SDS011;45067;44.654;20.200;2023-02-21T17:17:35;26.77;;;17.08;;
59294;SDS011;45067;44.654;20.200;2023-02-21T17:20:01;28.17;;;15.98;;
59294;SDS011;45067;44.654;20.200;2023-02-21T17:22:27;26.20;;;15.65;;
59294;SDS011;45067;44.654;20.200;2023-02-21T17:24:53;19.83;;;13.15;;
59294;SDS011;45067;44.654;20.200;2023-02-21T17:27:20;16.70;;;10.93;;
59294;SDS011;45067;44.654;20.200;2023-02-21T17:29:46;16.63;;;9.73;;
59294;SDS011;45067;44.654;20.200;2023-02-21T17:35:16;16.05;;;9.73;;
59294;SDS011;45067;44.654;20.200;2023-02-21T17:37:43;15.80;;;9.85;;
59294;SDS011;45067;44.654;20.200;2023-02-21T17:40:12;15.63;;;10.02;;
59294;SDS011;45067;44.654;20.200;2023-02-21T17:42:38;12.90;;;9.43;;
59294;SDS011;45067;44.654;20.200;2023-02-21T17:45:04;15.60;;;8.95;;
59294;SDS011;45067;44.654;20.200;2023-02-21T17:47:31;13.50;;;7.90;;
59294;SDS011;45067;44.654;20.200;2023-02-21T17:49:57;15.45;;;8.65;;
59294;SDS011;45067;44.654;20.200;2023-02-21T17:52:24;12.10;;;8.02;;
59294;SDS011;45067;44.654;20.200;2023-02-21T17:54:51;13.88;;;8.57;;
59294;SDS011;45067;44.654;20.200;2023-02-21T17:57:17;12.80;;;8.52;;
59294;SDS011;45067;44.654;20.200;2023-02-21T17:59:43;16.38;;;9.63;;
59294;SDS011;45067;44.654;20.200;2023-02-21T18:05:12;20.10;;;11.05;;
59294;SDS011;45067;44.654;20.200;2023-02-21T18:07:38;25.27;;;14.95;;
59294;SDS011;45067;44.654;20.200;2023-02-21T18:10:05;25.33;;;13.65;;
59294;SDS011;45067;44.654;20.200;2023-02-21T18:12:31;36.85;;;21.70;;
59294;SDS011;45067;44.654;20.200;2023-02-21T18:14:58;80.68;;;41.53;;
59294;SDS011;45067;44.654;20.200;2023-02-21T18:20:27;25.55;;;13.77;;
59294;SDS011;45067;44.654;20.200;2023-02-21T18:22:54;43.10;;;23.15;;
59294;SDS011;45067;44.654;20.200;2023-02-21T18:25:20;32.22;;;17.30;;
59294;SDS011;45067;44.654;20.200;2023-02-21T18:27:48;47.53;;;25.02;;
59294;SDS011;45067;44.654;20.200;2023-02-21T18:30:15;24.95;;;15.80;;
59294;SDS011;45067;44.654;20.200;2023-02-21T18:32:41;26.35;;;15.95;;
59294;SDS011;45067;44.654;20.200;2023-02-21T18:35:07;28.58;;;18.58;;
59294;SDS011;45067;44.654;20.200;2023-02-21T18:37:33;31.85;;;18.95;;
59294;SDS011;45067;44.654;20.200;2023-02-21T18:39:59;35.92;;;19.73;;
59294;SDS011;45067;44.654;20.200;2023-02-21T18:42:26;31.00;;;19.08;;
59294;SDS011;45067;44.654;20.200;2023-02-21T18:44:52;31.30;;;18.75;;
59294;SDS011;45067;44.654;20.200;2023-02-21T18:50:21;31.55;;;19.10;;
59294;SDS011;45067;44.654;20.200;2023-02-21T18:52:47;52.63;;;25.88;;